Terminal Aerodrome Forecast
Issued by NWS Sioux Falls, SD

Home | Current Version | Previous Version | Text Only | Print | Product List | Glossary Off
Versions: 1 2 3 4 5 6 7 8 9 10 11 12 13 14 15 16 17 18 19 20 21 22 23 24 25 26 27 28

704
FTUS43 KFSD 232320
TAFSUX
TAF
KSUX 232320Z 2400/2424 16011KT P6SM FEW070
     FM240600 15008KT P6SM FEW060 SCT200
     FM240900 15007KT P6SM FEW060 SCT200 WS015/19035KT
     FM241100 15007KT P6SM FEW060 SCT150
     FM241400 17010KT P6SM BKN050 BKN150
     FM241700 17013G19KT P6SM FEW050 SCT200
     FM242200 18014G21KT P6SM VCTS BKN050CB=

USA.gov is the U.S. government's official web portal to all federal, state and local government web resources and services.